Latest Weather Observations for Swan Island

IDT60801

Issued at 10:05 pm EDT Friday 24 October 2014 (issued every 30 minutes, with the page automatically refreshed every 10 minutes)

About weather observations | Map of weather stations | Latest weather observations for TAS | Other Formats
Station Details ID: 092123 Name: SWAN ISLAND Lat: -40.73 Lon: 148.12 Height: 15.0 m
Data from the previous 72 hours. | See also: Recent months at Swan Island
Date/Time
EDT
Temp
°C
App
Temp
°C
Dew
Point
Rel
Hum
%
Delta-T
°C
Wind Press
QNH
hPa
Press
MSL
hPa
Rain
since 9 am
mm
Dir
 
Spd
km/h
Gust
km/h
Spd
kts
Gust
kts
24/10:00pm 14.8 - - - - NW 19 24 10 13 1010.2 1010.2 0.0
24/09:30pm 15.1 - - - - NW 15 20 8 11 1010.3 1010.3 0.0
24/09:00pm 14.8 - - - - N 4 6 2 3 1010.0 1010.0 0.0
24/08:30pm 14.9 - - - - N 2 6 1 3 1009.6 1009.6 0.0
24/08:00pm 15.4 - - - - N 2 6 1 3 1009.7 1009.7 0.0
24/07:30pm 15.7 - - - - N 11 15 6 8 1009.5 1009.5 0.0
24/07:00pm 15.9 - - - - N 6 9 3 5 1009.6 1009.6 0.0
24/06:30pm 15.9 - - - - NE 11 19 6 10 1009.2 1009.2 0.0
24/06:00pm 15.9 - - - - NE 15 17 8 9 1009.5 1009.5 0.0
24/05:30pm 15.7 - - - - ENE 13 15 7 8 1010.0 1010.0 0.0
24/05:00pm 15.7 - - - - ENE 15 17 8 9 1010.2 1010.2 0.0
24/04:30pm 15.7 - - - - E 17 22 9 12 1010.3 1010.3 0.0
24/04:00pm 15.5 - - - - E 20 24 11 13 1010.9 1010.8 0.0
24/03:30pm 15.3 - - - - E 22 26 12 14 1011.5 1011.4 0.0
24/03:00pm 15.0 - - - - E 24 28 13 15 1012.0 1011.9 0.0
24/02:30pm 15.0 - - - - E 17 22 9 12 1012.9 1012.9 0.0
24/02:00pm 15.1 - - - - E 19 22 10 12 1013.5 1013.5 0.0
24/01:30pm 15.2 - - - - E 20 26 11 14 1014.1 1014.1 0.0
24/01:00pm 15.4 - - - - E 28 32 15 17 1014.3 1014.3 0.0
24/12:30pm 15.4 - - - - E 26 30 14 16 1014.6 1014.6 0.0
24/12:00pm 15.5 - - - - E 28 33 15 18 1015.2 1015.2 0.0
24/11:30am 15.4 - - - - E 30 35 16 19 1015.9 1015.9 0.0
24/11:00am 15.4 - - - - E 28 33 15 18 1016.3 1016.3 0.0
24/10:30am 15.0 - - - - E 32 39 17 21 1016.6 1016.6 0.0
24/10:00am 14.6 - - - - E 33 39 18 21 1017.1 1017.1 0.0
24/09:30am 14.4 - - - - E 33 37 18 20 1017.6 1017.6 0.0
24/09:00am 14.3 - - - - E 32 39 17 21 1018.2 1018.2 0.0
24/08:30am 14.3 - - - - E 35 41 19 22 1018.5 1018.5 0.0
24/08:00am 14.2 - - - - E 33 41 18 22 1018.8 1018.8 0.0
24/07:30am 14.2 - - - - E 33 43 18 23 1019.1 1019.1 0.0
24/07:00am 14.1 - - - - E 33 41 18 22 1019.1 1019.1 0.0
24/06:30am 14.0 - - - - E 33 39 18 21 1019.2 1019.2 0.0
24/06:00am 14.0 - - - - E 37 43 20 23 1019.4 1019.4 0.0
24/05:30am 13.9 - - - - E 32 39 17 21 1019.7 1019.7 0.0
24/05:00am 13.7 - - - - E 35 44 19 24 1019.9 1019.9 0.0
24/04:30am 13.8 - - - - E 33 41 18 22 1020.3 1020.3 0.0
24/04:00am 13.6 - - - - E 32 39 17 21 1020.8 1020.8 0.0
24/03:30am 13.6 - - - - E 35 43 19 23 1021.1 1021.1 0.0
24/03:00am 13.5 - - - - E 39 48 21 26 1021.2 1021.2 0.0
24/02:30am 13.6 - - - - ESE 35 43 19 23 1021.2 1021.2 0.0
24/02:00am 13.6 - - - - ESE 35 41 19 22 1021.7 1021.7 0.0
24/01:30am 13.4 - - - - ESE 37 44 20 24 1022.1 1022.1 0.0
24/01:00am 13.3 - - - - ESE 37 44 20 24 1022.8 1022.8 0.0
24/12:30am 13.1 - - - - ESE 39 50 21 27 1023.2 1023.2 0.0
24/12:00am 13.0 - - - - ESE 37 46 20 25 1023.5 1023.5 0.0
 
Date/Time
EDT
Temp
°C
App
Temp
°C
Dew
Point
Rel
Hum
%
Delta-T
°C
Wind Press
QNH
hPa
Press
MSL
hPa
Rain
since 9 am
mm
Dir
 
Spd
km/h
Gust
km/h
Spd
kts
Gust
kts
23/11:30pm 13.3 - - - - ESE 39 48 21 26 1024.0 1024.0 0.0
23/11:00pm 13.2 - - - - ESE 41 50 22 27 1024.2 1024.2 0.0
23/10:30pm 13.2 - - - - ESE 43 50 23 27 1024.4 1024.4 0.0
23/10:00pm 13.2 - - - - ESE 44 52 24 28 1024.4 1024.4 0.0
23/09:30pm 13.0 - - - - ESE 43 52 23 28 1024.4 1024.4 0.0
23/09:00pm 13.0 - - - - ESE 43 52 23 28 1024.2 1024.2 0.0
23/08:30pm 12.9 - - - - ESE 41 48 22 26 1024.0 1024.0 0.0
23/08:00pm 12.8 - - - - ESE 43 52 23 28 1023.7 1023.7 0.0
23/07:30pm 12.8 - - - - ESE 41 56 22 30 1023.6 1023.6 0.0
23/07:00pm 13.1 - - - - SE 41 56 22 30 1023.5 1023.5 0.0
23/06:30pm 13.1 - - - - SE 41 52 22 28 1023.3 1023.3 0.0
23/06:00pm 13.1 - - - - SE 41 54 22 29 1023.2 1023.2 0.0
23/05:30pm 13.8 - - - - SE 41 54 22 29 1023.2 1023.2 0.0
23/05:00pm 13.7 - - - - SE 43 54 23 29 1023.0 1023.0 0.0
23/04:30pm 14.1 - - - - SE 43 56 23 30 1023.0 1023.0 0.0
23/04:00pm 14.3 - - - - SE 43 56 23 30 1023.0 1023.0 0.0
23/03:30pm 14.7 - - - - SE 43 56 23 30 1023.0 1023.0 0.0
23/03:00pm 14.2 - - - - ESE 41 52 22 28 1023.0 1023.0 0.0
23/02:30pm 14.7 - - - - SE 43 56 23 30 1023.3 1023.3 0.0
23/02:00pm 14.9 - - - - SE 46 56 25 30 1023.4 1023.4 0.0
23/01:30pm 14.9 - - - - SE 44 56 24 30 1023.4 1023.4 0.0
23/01:00pm 14.9 - - - - SE 46 56 25 30 1023.3 1023.3 0.0
23/12:30pm 15.1 - - - - SE 50 61 27 33 1023.2 1023.2 0.0
23/12:00pm 14.8 - - - - SE 46 61 25 33 1023.2 1023.2 0.0
23/11:30am 14.4 - - - - SE 50 65 27 35 1023.1 1023.1 0.0
23/11:00am 14.6 - - - - SE 50 63 27 34 1023.3 1023.3 0.0
23/10:30am 14.2 - - - - SSE 50 63 27 34 1023.1 1023.1 0.0
23/10:00am 14.0 - - - - SE 52 65 28 35 1022.8 1022.8 0.0
23/09:37am 13.6 - - - - SE 50 69 27 37 1022.6 1022.6 0.0
23/09:30am 14.1 - - - - SE 52 67 28 36 1022.5 1022.5 0.0
23/09:00am 13.5 - - - - SE 52 63 28 34 1022.2 1022.2 0.0
23/08:33am 13.1 - - - - SSE 46 65 25 35 1022.1 1022.1 0.0
23/08:30am 12.9 - - - - SSE 48 65 26 35 1022.1 1022.1 0.0
23/08:16am 12.9 - - - - SE 50 69 27 37 1021.8 1021.8 0.0
23/08:00am 13.0 - - - - SSE 50 69 27 37 1021.5 1021.5 0.0
23/07:54am 12.9 - - - - SSE 48 69 26 37 1021.3 1021.3 0.0
23/07:30am 13.1 - - - - SE 52 67 28 36 1020.7 1020.7 0.0
23/07:00am 12.8 - - - - SSE 54 72 29 39 1020.1 1020.1 0.0
23/06:54am 12.7 - - - - SSE 54 72 29 39 1020.0 1020.0 0.0
23/06:30am 12.9 - - - - SSE 50 65 27 35 1019.6 1019.6 0.0
23/06:00am 13.4 - - - - SSE 48 61 26 33 1019.5 1019.5 0.0
23/05:50am 13.7 - - - - SE 48 69 26 37 1019.3 1019.3 0.0
23/05:30am 13.7 - - - - SE 56 69 30 37 1018.9 1018.9 0.0
23/05:13am 13.7 - - - - SE 50 72 27 39 1018.8 1018.8 0.0
23/05:00am 13.8 - - - - SE 50 65 27 35 1018.7 1018.7 0.0
23/04:30am 13.8 - - - - SE 52 70 28 38 1018.5 1018.5 0.0
23/04:00am 13.7 - - - - SE 52 65 28 35 1018.1 1018.1 0.0
23/03:30am 13.9 - - - - SE 46 57 25 31 1018.2 1018.2 0.0
23/03:00am 13.9 - - - - SE 46 61 25 33 1018.1 1018.1 0.0
23/02:30am 13.8 - - - - SE 43 57 23 31 1018.2 1018.2 0.0
23/02:00am 13.8 - - - - SE 41 52 22 28 1018.1 1018.1 0.0
23/01:30am 13.8 - - - - SE 46 59 25 32 1017.8 1017.8 0.0
23/01:00am 14.0 - - - - SE 44 61 24 33 1017.5 1017.5 0.0
23/12:30am 14.6 - - - - SE 32 48 17 26 1017.8 1017.8 0.0
23/12:29am 14.7 - - - - SE 30 48 16 26 1017.8 1017.8 0.0
23/12:27am 14.8 - - - - SE 28 39 15 21 1017.8 1017.8 0.0
23/12:00am 14.6 - - - - S 9 15 5 8 1017.5 1017.5 0.0
 
Date/Time
EDT
Temp
°C
App
Temp
°C
Dew
Point
Rel
Hum
%
Delta-T
°C
Wind Press
QNH
hPa
Press
MSL
hPa
Rain
since 9 am
mm
Dir
 
Spd
km/h
Gust
km/h
Spd
kts
Gust
kts
22/11:30pm 14.7 - - - - W 15 22 8 12 1016.5 1016.5 0.0
22/11:00pm 14.7 - - - - WNW 11 17 6 9 1016.1 1016.1 0.0
22/10:30pm 14.4 - - - - W 15 22 8 12 1015.8 1015.8 0.0
22/10:00pm 14.3 - - - - W 9 17 5 9 1016.0 1016.0 0.0
22/09:30pm 14.4 - - - - WNW 9 13 5 7 1015.2 1015.2 0.0
22/09:00pm 14.5 - - - - N 11 19 6 10 1015.6 1015.6 0.0
22/08:30pm 14.5 - - - - N 9 17 5 9 1015.2 1015.2 0.0
22/08:00pm 14.7 - - - - WNW 13 17 7 9 1015.6 1015.6 0.0
22/07:30pm 14.9 - - - - W 19 26 10 14 1016.2 1016.2 0.0
22/07:00pm 15.1 - - - - WNW 15 20 8 11 1015.6 1015.6 0.0
22/06:30pm 15.7 - - - - WNW 15 19 8 10 1015.7 1015.7 0.0
22/06:00pm 16.6 - - - - WNW 15 20 8 11 1015.7 1015.7 0.0
22/05:30pm 17.4 - - - - WNW 13 20 7 11 1015.7 1015.7 0.0
22/05:00pm 18.0 - - - - NW 13 19 7 10 1015.8 1015.8 0.0
22/04:30pm 18.2 - - - - NW 11 19 6 10 1016.0 1016.0 0.0
22/04:00pm 17.7 - - - - NW 11 17 6 9 1015.9 1015.9 0.0
22/03:30pm 19.0 - - - - WNW 13 19 7 10 1016.5 1016.5 0.0
22/03:00pm 18.6 - - - - NW 9 13 5 7 1016.7 1016.7 0.0
22/02:30pm 18.9 - - - - NNW 7 9 4 5 1017.0 1017.0 0.0
22/02:00pm 18.8 - - - - NNW 9 11 5 6 1017.6 1017.6 0.0
22/01:30pm 20.1 - - - - NW 9 13 5 7 1018.0 1018.0 0.0
22/01:00pm 20.0 - - - - W 11 17 6 9 1018.6 1018.6 0.0
22/12:30pm 20.6 - - - - W 13 19 7 10 1019.0 1019.0 0.0
22/12:00pm 19.2 - - - - NW 11 15 6 8 1019.6 1019.6 0.0
22/11:30am 18.6 - - - - NNW 7 9 4 5 1020.1 1020.1 0.0
22/11:00am 18.4 - - - - N 11 15 6 8 1020.5 1020.5 0.0
22/10:30am 17.5 - - - - NE 15 17 8 9 1020.8 1020.8 0.0
22/10:00am 16.8 - - - - NE 17 20 9 11 1021.1 1021.1 0.0
22/09:30am 16.7 - - - - ENE 13 17 7 9 1021.5 1021.5 0.0
22/09:00am 16.1 - - - - ENE 15 19 8 10 1021.5 1021.5 0.0
22/08:30am 15.8 - - - - ENE 15 19 8 10 1021.9 1021.9 0.0
22/08:00am 15.3 - - - - ENE 17 19 9 10 1022.1 1022.1 0.0
22/07:30am 14.4 - - - - ENE 19 22 10 12 1022.3 1022.3 0.0
22/07:00am 14.0 - - - - ENE 19 20 10 11 1022.6 1022.6 0.0
22/06:30am 13.9 - - - - ENE 19 22 10 12 1023.0 1023.0 0.0
22/06:00am 13.8 - - - - ENE 19 20 10 11 1023.2 1023.2 0.0
22/05:30am 13.9 - - - - ENE 17 22 9 12 1023.3 1023.3 0.0
22/05:00am 14.1 - - - - ENE 17 20 9 11 1023.5 1023.5 0.0
22/04:30am 14.2 - - - - NE 19 30 10 16 1023.9 1023.9 0.0
22/04:00am 14.2 - - - - NE 20 28 11 15 1024.4 1024.4 0.0
22/03:30am 14.2 - - - - NE 24 32 13 17 1024.9 1024.9 0.0
22/03:00am 14.1 - - - - NE 19 26 10 14 1025.4 1025.4 0.0
22/02:30am 14.0 - - - - NE 13 22 7 12 1026.0 1026.0 0.0
22/02:00am 13.8 - - - - NNE 22 32 12 17 1026.2 1026.2 0.0
22/01:30am 14.0 - - - - NE 22 28 12 15 1026.5 1026.5 0.0
22/01:00am 13.9 - - - - NE 20 26 11 14 1027.2 1027.2 0.0
22/12:30am 14.1 - - - - NE 24 30 13 16 1027.8 1027.8 0.0
22/12:00am 14.0 - - - - NE 24 30 13 16 1028.3 1028.3 0.0
 
Date/Time
EDT
Temp
°C
App
Temp
°C
Dew
Point
Rel
Hum
%
Delta-T
°C
Wind Press
QNH
hPa
Press
MSL
hPa
Rain
since 9 am
mm
Dir
 
Spd
km/h
Gust
km/h
Spd
kts
Gust
kts
21/11:30pm 14.0 - - - - NE 19 24 10 13 1028.7 1028.7 0.0
21/11:00pm 14.0 - - - - NE 20 24 11 13 1029.1 1029.1 0.0
21/10:30pm 14.1 - - - - NE 22 30 12 16 1029.3 1029.3 0.0

Other Formats:

Comma delimited format used in spreadsheet applications
http://www.bom.gov.au/fwo/IDT60801/IDT60801.95985.axf

JavaScript Object Notation format (JSON) in row-major order
http://www.bom.gov.au/fwo/IDT60801/IDT60801.95985.json